sensor_id;sensor_type;location;lat;lon;timestamp;P1;durP1;ratioP1;P2;durP2;ratioP2
23206;SDS011;11773;52.570;13.052;2023-03-04T00:00:16;4.30;;;3.10;;
23206;SDS011;11773;52.570;13.052;2023-03-04T00:02:45;5.53;;;3.70;;
23206;SDS011;11773;52.570;13.052;2023-03-04T00:05:15;3.70;;;3.00;;
23206;SDS011;11773;52.570;13.052;2023-03-04T00:07:44;4.23;;;3.00;;
23206;SDS011;11773;52.570;13.052;2023-03-04T00:10:14;4.47;;;3.20;;
23206;SDS011;11773;52.570;13.052;2023-03-04T00:12:44;5.13;;;3.40;;
23206;SDS011;11773;52.570;13.052;2023-03-04T00:15:13;4.53;;;3.20;;
23206;SDS011;11773;52.570;13.052;2023-03-04T00:17:42;6.50;;;4.50;;
23206;SDS011;11773;52.570;13.052;2023-03-04T00:20:12;5.80;;;4.10;;
23206;SDS011;11773;52.570;13.052;2023-03-04T00:22:42;6.40;;;4.50;;
23206;SDS011;11773;52.570;13.052;2023-03-04T00:25:14;9.07;;;5.93;;
23206;SDS011;11773;52.570;13.052;2023-03-04T00:27:43;6.43;;;4.50;;
23206;SDS011;11773;52.570;13.052;2023-03-04T00:30:13;6.87;;;4.67;;
23206;SDS011;11773;52.570;13.052;2023-03-04T00:32:42;7.60;;;5.10;;
23206;SDS011;11773;52.570;13.052;2023-03-04T00:35:12;5.67;;;4.20;;
23206;SDS011;11773;52.570;13.052;2023-03-04T00:37:41;9.23;;;5.00;;
23206;SDS011;11773;52.570;13.052;2023-03-04T00:40:11;6.47;;;4.63;;
23206;SDS011;11773;52.570;13.052;2023-03-04T00:42:41;7.20;;;4.33;;
23206;SDS011;11773;52.570;13.052;2023-03-04T00:45:10;7.20;;;4.27;;
23206;SDS011;11773;52.570;13.052;2023-03-04T00:47:40;5.53;;;4.00;;
23206;SDS011;11773;52.570;13.052;2023-03-04T00:50:09;7.47;;;4.43;;
23206;SDS011;11773;52.570;13.052;2023-03-04T00:52:39;7.67;;;4.80;;
23206;SDS011;11773;52.570;13.052;2023-03-04T00:55:09;8.30;;;4.77;;
23206;SDS011;11773;52.570;13.052;2023-03-04T00:57:38;6.00;;;4.00;;
23206;SDS011;11773;52.570;13.052;2023-03-04T01:00:08;5.97;;;3.33;;
23206;SDS011;11773;52.570;13.052;2023-03-04T01:02:39;9.00;;;5.00;;
23206;SDS011;11773;52.570;13.052;2023-03-04T01:05:09;7.17;;;4.33;;
23206;SDS011;11773;52.570;13.052;2023-03-04T01:07:39;8.00;;;4.60;;
23206;SDS011;11773;52.570;13.052;2023-03-04T01:10:08;4.73;;;3.33;;
23206;SDS011;11773;52.570;13.052;2023-03-04T01:12:41;4.97;;;3.90;;
23206;SDS011;11773;52.570;13.052;2023-03-04T01:15:12;5.90;;;4.00;;
23206;SDS011;11773;52.570;13.052;2023-03-04T01:17:42;4.73;;;3.07;;
23206;SDS011;11773;52.570;13.052;2023-03-04T01:20:12;6.40;;;3.90;;
23206;SDS011;11773;52.570;13.052;2023-03-04T01:22:41;5.67;;;3.50;;
23206;SDS011;11773;52.570;13.052;2023-03-04T01:25:11;3.33;;;2.43;;
23206;SDS011;11773;52.570;13.052;2023-03-04T01:27:41;3.77;;;2.70;;
23206;SDS011;11773;52.570;13.052;2023-03-04T01:30:10;4.70;;;2.60;;
23206;SDS011;11773;52.570;13.052;2023-03-04T01:32:40;6.30;;;3.43;;
23206;SDS011;11773;52.570;13.052;2023-03-04T01:35:10;5.10;;;2.90;;
23206;SDS011;11773;52.570;13.052;2023-03-04T01:37:39;3.43;;;2.80;;
23206;SDS011;11773;52.570;13.052;2023-03-04T01:40:09;3.63;;;2.67;;
23206;SDS011;11773;52.570;13.052;2023-03-04T01:42:40;3.83;;;2.60;;
23206;SDS011;11773;52.570;13.052;2023-03-04T01:45:12;3.63;;;2.80;;
23206;SDS011;11773;52.570;13.052;2023-03-04T01:47:46;4.60;;;2.57;;
23206;SDS011;11773;52.570;13.052;2023-03-04T01:50:27;3.17;;;2.83;;
23206;SDS011;11773;52.570;13.052;2023-03-04T01:52:57;4.53;;;2.47;;
23206;SDS011;11773;52.570;13.052;2023-03-04T01:55:27;3.80;;;2.67;;
23206;SDS011;11773;52.570;13.052;2023-03-04T01:57:58;4.03;;;2.53;;
23206;SDS011;11773;52.570;13.052;2023-03-04T02:00:28;4.40;;;2.90;;
23206;SDS011;11773;52.570;13.052;2023-03-04T02:03:04;3.93;;;2.60;;
23206;SDS011;11773;52.570;13.052;2023-03-04T02:05:42;4.60;;;2.80;;
23206;SDS011;11773;52.570;13.052;2023-03-04T02:08:15;2.57;;;2.07;;
23206;SDS011;11773;52.570;13.052;2023-03-04T02:10:48;2.67;;;2.00;;
23206;SDS011;11773;52.570;13.052;2023-03-04T02:13:19;2.10;;;1.60;;
23206;SDS011;11773;52.570;13.052;2023-03-04T02:15:48;2.40;;;1.87;;
23206;SDS011;11773;52.570;13.052;2023-03-04T02:18:22;3.27;;;2.17;;
23206;SDS011;11773;52.570;13.052;2023-03-04T02:20:55;3.57;;;2.20;;
23206;SDS011;11773;52.570;13.052;2023-03-04T02:23:52;2.80;;;1.90;;
23206;SDS011;11773;52.570;13.052;2023-03-04T02:26:41;3.07;;;2.20;;
23206;SDS011;11773;52.570;13.052;2023-03-04T02:29:13;3.37;;;2.20;;
23206;SDS011;11773;52.570;13.052;2023-03-04T02:31:48;2.10;;;1.90;;
23206;SDS011;11773;52.570;13.052;2023-03-04T02:34:28;3.10;;;1.37;;
23206;SDS011;11773;52.570;13.052;2023-03-04T02:37:01;3.83;;;2.40;;
23206;SDS011;11773;52.570;13.052;2023-03-04T02:39:34;2.30;;;2.03;;
23206;SDS011;11773;52.570;13.052;2023-03-04T02:42:12;4.57;;;1.90;;
23206;SDS011;11773;52.570;13.052;2023-03-04T02:44:43;3.07;;;1.77;;
23206;SDS011;11773;52.570;13.052;2023-03-04T02:47:16;2.07;;;1.57;;
23206;SDS011;11773;52.570;13.052;2023-03-04T02:49:46;2.63;;;1.70;;
23206;SDS011;11773;52.570;13.052;2023-03-04T02:52:17;3.80;;;2.10;;
23206;SDS011;11773;52.570;13.052;2023-03-04T02:54:49;1.70;;;1.40;;
23206;SDS011;11773;52.570;13.052;2023-03-04T02:57:19;2.37;;;1.83;;
23206;SDS011;11773;52.570;13.052;2023-03-04T02:59:48;1.80;;;1.70;;
23206;SDS011;11773;52.570;13.052;2023-03-04T03:02:18;3.25;;;2.30;;
23206;SDS011;11773;52.570;13.052;2023-03-04T03:04:47;2.03;;;1.53;;
23206;SDS011;11773;52.570;13.052;2023-03-04T03:07:16;2.57;;;1.40;;
23206;SDS011;11773;52.570;13.052;2023-03-04T03:09:46;2.00;;;1.40;;
23206;SDS011;11773;52.570;13.052;2023-03-04T03:12:16;1.63;;;1.20;;
23206;SDS011;11773;52.570;13.052;2023-03-04T03:14:45;1.90;;;1.27;;
23206;SDS011;11773;52.570;13.052;2023-03-04T03:17:15;2.57;;;1.83;;
23206;SDS011;11773;52.570;13.052;2023-03-04T03:19:44;2.47;;;1.50;;
23206;SDS011;11773;52.570;13.052;2023-03-04T03:22:14;1.27;;;0.97;;
23206;SDS011;11773;52.570;13.052;2023-03-04T03:24:43;0.70;;;0.70;;
23206;SDS011;11773;52.570;13.052;2023-03-04T03:27:12;3.63;;;1.80;;
23206;SDS011;11773;52.570;13.052;2023-03-04T03:29:42;3.47;;;1.30;;
23206;SDS011;11773;52.570;13.052;2023-03-04T03:32:11;2.80;;;1.50;;
23206;SDS011;11773;52.570;13.052;2023-03-04T03:34:41;2.47;;;1.30;;
23206;SDS011;11773;52.570;13.052;2023-03-04T03:37:11;2.43;;;1.47;;
23206;SDS011;11773;52.570;13.052;2023-03-04T03:39:41;2.07;;;1.67;;
23206;SDS011;11773;52.570;13.052;2023-03-04T03:42:11;2.47;;;1.90;;
23206;SDS011;11773;52.570;13.052;2023-03-04T03:44:40;3.73;;;1.90;;
23206;SDS011;11773;52.570;13.052;2023-03-04T03:47:09;1.20;;;1.00;;
23206;SDS011;11773;52.570;13.052;2023-03-04T03:49:39;1.30;;;1.00;;
23206;SDS011;11773;52.570;13.052;2023-03-04T03:52:08;1.20;;;1.10;;
23206;SDS011;11773;52.570;13.052;2023-03-04T03:54:38;1.83;;;1.10;;
23206;SDS011;11773;52.570;13.052;2023-03-04T03:57:07;1.63;;;1.00;;
23206;SDS011;11773;52.570;13.052;2023-03-04T03:59:37;1.23;;;1.00;;
23206;SDS011;11773;52.570;13.052;2023-03-04T04:02:06;1.23;;;0.97;;
23206;SDS011;11773;52.570;13.052;2023-03-04T04:04:36;2.70;;;1.50;;
23206;SDS011;11773;52.570;13.052;2023-03-04T04:07:05;3.27;;;1.47;;
23206;SDS011;11773;52.570;13.052;2023-03-04T04:09:35;1.77;;;1.30;;
23206;SDS011;11773;52.570;13.052;2023-03-04T04:12:05;1.33;;;1.03;;
23206;SDS011;11773;52.570;13.052;2023-03-04T04:14:35;1.83;;;0.80;;
23206;SDS011;11773;52.570;13.052;2023-03-04T04:17:04;0.90;;;0.80;;
23206;SDS011;11773;52.570;13.052;2023-03-04T04:19:34;3.77;;;1.40;;
23206;SDS011;11773;52.570;13.052;2023-03-04T04:22:04;2.73;;;1.17;;
23206;SDS011;11773;52.570;13.052;2023-03-04T04:24:35;3.00;;;1.30;;
23206;SDS011;11773;52.570;13.052;2023-03-04T04:27:04;1.50;;;0.90;;
23206;SDS011;11773;52.570;13.052;2023-03-04T04:29:34;2.10;;;1.10;;
23206;SDS011;11773;52.570;13.052;2023-03-04T04:32:04;1.53;;;1.10;;
23206;SDS011;11773;52.570;13.052;2023-03-04T04:34:34;2.57;;;1.40;;
23206;SDS011;11773;52.570;13.052;2023-03-04T04:37:04;2.37;;;1.20;;
23206;SDS011;11773;52.570;13.052;2023-03-04T04:42:23;1.95;;;1.10;;
23206;SDS011;11773;52.570;13.052;2023-03-04T04:44:52;0.87;;;0.87;;
23206;SDS011;11773;52.570;13.052;2023-03-04T04:47:23;1.03;;;0.93;;
23206;SDS011;11773;52.570;13.052;2023-03-04T04:49:53;1.47;;;0.67;;
23206;SDS011;11773;52.570;13.052;2023-03-04T04:52:22;1.00;;;0.60;;
23206;SDS011;11773;52.570;13.052;2023-03-04T04:54:52;0.60;;;0.50;;
23206;SDS011;11773;52.570;13.052;2023-03-04T04:57:21;0.60;;;0.60;;
23206;SDS011;11773;52.570;13.052;2023-03-04T04:59:51;2.13;;;1.23;;
23206;SDS011;11773;52.570;13.052;2023-03-04T05:02:20;1.53;;;0.93;;
23206;SDS011;11773;52.570;13.052;2023-03-04T05:04:50;1.93;;;0.90;;
23206;SDS011;11773;52.570;13.052;2023-03-04T05:07:19;2.63;;;0.80;;
23206;SDS011;11773;52.570;13.052;2023-03-04T05:09:49;1.93;;;1.10;;
23206;SDS011;11773;52.570;13.052;2023-03-04T05:12:18;0.70;;;0.70;;
23206;SDS011;11773;52.570;13.052;2023-03-04T05:14:48;0.57;;;0.57;;
23206;SDS011;11773;52.570;13.052;2023-03-04T05:17:17;0.40;;;0.40;;
23206;SDS011;11773;52.570;13.052;2023-03-04T05:19:47;0.97;;;0.60;;
23206;SDS011;11773;52.570;13.052;2023-03-04T05:22:16;2.73;;;1.10;;
23206;SDS011;11773;52.570;13.052;2023-03-04T05:24:46;0.90;;;0.70;;
23206;SDS011;11773;52.570;13.052;2023-03-04T05:27:15;1.47;;;0.70;;
23206;SDS011;11773;52.570;13.052;2023-03-04T05:29:45;1.10;;;0.70;;
23206;SDS011;11773;52.570;13.052;2023-03-04T05:32:14;1.23;;;0.87;;
23206;SDS011;11773;52.570;13.052;2023-03-04T05:34:44;1.00;;;0.70;;
23206;SDS011;11773;52.570;13.052;2023-03-04T05:37:13;0.70;;;0.67;;
23206;SDS011;11773;52.570;13.052;2023-03-04T05:39:43;1.37;;;1.00;;
23206;SDS011;11773;52.570;13.052;2023-03-04T05:42:12;0.63;;;0.63;;
23206;SDS011;11773;52.570;13.052;2023-03-04T05:44:42;0.80;;;0.63;;
23206;SDS011;11773;52.570;13.052;2023-03-04T05:47:11;1.87;;;0.97;;
23206;SDS011;11773;52.570;13.052;2023-03-04T05:49:41;1.43;;;0.60;;
23206;SDS011;11773;52.570;13.052;2023-03-04T05:52:10;1.43;;;0.93;;
23206;SDS011;11773;52.570;13.052;2023-03-04T05:54:40;1.50;;;1.00;;
23206;SDS011;11773;52.570;13.052;2023-03-04T05:57:09;2.10;;;0.90;;
23206;SDS011;11773;52.570;13.052;2023-03-04T05:59:39;1.40;;;0.70;;
23206;SDS011;11773;52.570;13.052;2023-03-04T06:02:08;1.03;;;0.70;;
23206;SDS011;11773;52.570;13.052;2023-03-04T06:04:38;0.97;;;0.87;;
23206;SDS011;11773;52.570;13.052;2023-03-04T06:07:07;1.07;;;0.87;;
23206;SDS011;11773;52.570;13.052;2023-03-04T06:09:37;2.40;;;0.80;;
23206;SDS011;11773;52.570;13.052;2023-03-04T06:12:06;1.53;;;1.00;;
23206;SDS011;11773;52.570;13.052;2023-03-04T06:14:36;0.87;;;0.60;;
23206;SDS011;11773;52.570;13.052;2023-03-04T06:17:05;1.23;;;0.90;;
23206;SDS011;11773;52.570;13.052;2023-03-04T06:19:35;0.80;;;0.70;;
23206;SDS011;11773;52.570;13.052;2023-03-04T06:22:04;1.60;;;0.90;;
23206;SDS011;11773;52.570;13.052;2023-03-04T06:24:34;0.63;;;0.60;;
23206;SDS011;11773;52.570;13.052;2023-03-04T06:27:04;1.57;;;0.70;;
23206;SDS011;11773;52.570;13.052;2023-03-04T06:29:34;1.63;;;0.87;;
23206;SDS011;11773;52.570;13.052;2023-03-04T06:32:03;0.33;;;0.33;;
23206;SDS011;11773;52.570;13.052;2023-03-04T06:34:33;1.40;;;0.60;;
23206;SDS011;11773;52.570;13.052;2023-03-04T06:37:03;1.33;;;0.87;;
23206;SDS011;11773;52.570;13.052;2023-03-04T06:39:32;0.83;;;0.50;;
23206;SDS011;11773;52.570;13.052;2023-03-04T06:42:02;1.43;;;0.77;;
23206;SDS011;11773;52.570;13.052;2023-03-04T06:44:32;0.57;;;0.40;;
23206;SDS011;11773;52.570;13.052;2023-03-04T06:47:01;0.97;;;0.50;;
23206;SDS011;11773;52.570;13.052;2023-03-04T06:49:31;0.90;;;0.50;;
23206;SDS011;11773;52.570;13.052;2023-03-04T06:52:00;0.40;;;0.40;;
23206;SDS011;11773;52.570;13.052;2023-03-04T06:54:30;0.53;;;0.40;;
23206;SDS011;11773;52.570;13.052;2023-03-04T06:57:00;1.10;;;0.50;;
23206;SDS011;11773;52.570;13.052;2023-03-04T06:59:29;0.50;;;0.30;;
23206;SDS011;11773;52.570;13.052;2023-03-04T07:01:59;0.90;;;0.90;;
23206;SDS011;11773;52.570;13.052;2023-03-04T07:04:28;0.70;;;0.70;;
23206;SDS011;11773;52.570;13.052;2023-03-04T07:06:58;0.90;;;0.50;;
23206;SDS011;11773;52.570;13.052;2023-03-04T07:09:27;0.93;;;0.70;;
23206;SDS011;11773;52.570;13.052;2023-03-04T07:11:57;0.50;;;0.50;;
23206;SDS011;11773;52.570;13.052;2023-03-04T07:14:26;0.40;;;0.37;;
23206;SDS011;11773;52.570;13.052;2023-03-04T07:16:56;0.73;;;0.60;;
23206;SDS011;11773;52.570;13.052;2023-03-04T07:19:25;1.20;;;0.70;;
23206;SDS011;11773;52.570;13.052;2023-03-04T07:21:55;2.17;;;0.90;;
23206;SDS011;11773;52.570;13.052;2023-03-04T07:24:25;2.40;;;0.97;;
23206;SDS011;11773;52.570;13.052;2023-03-04T07:26:54;1.10;;;0.67;;
23206;SDS011;11773;52.570;13.052;2023-03-04T07:29:24;1.20;;;0.70;;
23206;SDS011;11773;52.570;13.052;2023-03-04T07:31:53;1.23;;;0.70;;
23206;SDS011;11773;52.570;13.052;2023-03-04T07:34:23;1.17;;;0.70;;
23206;SDS011;11773;52.570;13.052;2023-03-04T07:36:53;1.33;;;0.80;;
23206;SDS011;11773;52.570;13.052;2023-03-04T07:39:22;0.47;;;0.47;;
23206;SDS011;11773;52.570;13.052;2023-03-04T07:41:52;0.70;;;0.70;;
23206;SDS011;11773;52.570;13.052;2023-03-04T07:44:22;0.97;;;0.83;;
23206;SDS011;11773;52.570;13.052;2023-03-04T07:46:51;0.80;;;0.60;;
23206;SDS011;11773;52.570;13.052;2023-03-04T07:49:21;0.60;;;0.47;;
23206;SDS011;11773;52.570;13.052;2023-03-04T07:51:51;0.77;;;0.47;;
23206;SDS011;11773;52.570;13.052;2023-03-04T07:54:20;0.60;;;0.60;;
23206;SDS011;11773;52.570;13.052;2023-03-04T07:56:49;0.50;;;0.50;;
23206;SDS011;11773;52.570;13.052;2023-03-04T07:59:19;0.60;;;0.60;;
23206;SDS011;11773;52.570;13.052;2023-03-04T08:01:49;0.60;;;0.60;;
23206;SDS011;11773;52.570;13.052;2023-03-04T08:04:18;0.60;;;0.50;;
23206;SDS011;11773;52.570;13.052;2023-03-04T08:06:48;0.73;;;0.60;;
23206;SDS011;11773;52.570;13.052;2023-03-04T08:09:17;1.43;;;0.70;;
23206;SDS011;11773;52.570;13.052;2023-03-04T08:11:47;0.77;;;0.50;;
23206;SDS011;11773;52.570;13.052;2023-03-04T08:14:16;1.60;;;0.80;;
23206;SDS011;11773;52.570;13.052;2023-03-04T08:16:46;0.70;;;0.60;;
23206;SDS011;11773;52.570;13.052;2023-03-04T08:19:15;0.70;;;0.70;;
23206;SDS011;11773;52.570;13.052;2023-03-04T08:21:45;0.40;;;0.40;;
23206;SDS011;11773;52.570;13.052;2023-03-04T08:24:14;1.40;;;0.80;;
23206;SDS011;11773;52.570;13.052;2023-03-04T08:26:45;0.50;;;0.50;;
23206;SDS011;11773;52.570;13.052;2023-03-04T08:29:18;0.77;;;0.77;;
23206;SDS011;11773;52.570;13.052;2023-03-04T08:31:50;0.33;;;0.33;;
23206;SDS011;11773;52.570;13.052;2023-03-04T08:34:22;0.47;;;0.47;;
23206;SDS011;11773;52.570;13.052;2023-03-04T08:36:54;0.70;;;0.60;;
23206;SDS011;11773;52.570;13.052;2023-03-04T08:39:24;0.37;;;0.37;;
23206;SDS011;11773;52.570;13.052;2023-03-04T08:41:53;0.77;;;0.53;;
23206;SDS011;11773;52.570;13.052;2023-03-04T08:44:23;0.53;;;0.50;;
23206;SDS011;11773;52.570;13.052;2023-03-04T08:46:52;1.17;;;0.87;;
23206;SDS011;11773;52.570;13.052;2023-03-04T08:49:22;0.90;;;0.60;;
23206;SDS011;11773;52.570;13.052;2023-03-04T08:51:51;0.60;;;0.50;;
23206;SDS011;11773;52.570;13.052;2023-03-04T08:54:21;0.67;;;0.67;;
23206;SDS011;11773;52.570;13.052;2023-03-04T08:56:50;0.50;;;0.50;;
23206;SDS011;11773;52.570;13.052;2023-03-04T08:59:19;1.00;;;0.73;;
23206;SDS011;11773;52.570;13.052;2023-03-04T09:01:49;0.83;;;0.80;;
23206;SDS011;11773;52.570;13.052;2023-03-04T09:04:18;1.27;;;0.63;;
23206;SDS011;11773;52.570;13.052;2023-03-04T09:06:48;0.83;;;0.67;;
23206;SDS011;11773;52.570;13.052;2023-03-04T09:09:19;2.50;;;0.93;;
23206;SDS011;11773;52.570;13.052;2023-03-04T09:11:48;1.63;;;0.63;;
23206;SDS011;11773;52.570;13.052;2023-03-04T09:14:18;0.60;;;0.50;;
23206;SDS011;11773;52.570;13.052;2023-03-04T09:16:47;1.00;;;0.70;;
23206;SDS011;11773;52.570;13.052;2023-03-04T09:19:17;0.70;;;0.50;;
23206;SDS011;11773;52.570;13.052;2023-03-04T09:21:46;2.30;;;0.90;;
23206;SDS011;11773;52.570;13.052;2023-03-04T09:24:16;1.20;;;0.90;;
23206;SDS011;11773;52.570;13.052;2023-03-04T09:26:48;2.57;;;0.83;;
23206;SDS011;11773;52.570;13.052;2023-03-04T09:29:20;1.57;;;0.80;;
23206;SDS011;11773;52.570;13.052;2023-03-04T09:31:50;1.23;;;0.83;;
23206;SDS011;11773;52.570;13.052;2023-03-04T09:34:20;3.80;;;1.23;;
23206;SDS011;11773;52.570;13.052;2023-03-04T09:36:49;2.80;;;0.90;;
23206;SDS011;11773;52.570;13.052;2023-03-04T09:39:19;2.87;;;1.00;;
23206;SDS011;11773;52.570;13.052;2023-03-04T09:41:49;4.33;;;1.50;;
23206;SDS011;11773;52.570;13.052;2023-03-04T09:44:30;1.60;;;1.10;;
23206;SDS011;11773;52.570;13.052;2023-03-04T09:47:10;1.77;;;1.10;;
23206;SDS011;11773;52.570;13.052;2023-03-04T09:49:42;2.63;;;0.93;;
23206;SDS011;11773;52.570;13.052;2023-03-04T09:52:20;1.50;;;1.07;;
23206;SDS011;11773;52.570;13.052;2023-03-04T09:57:54;2.07;;;1.30;;
23206;SDS011;11773;52.570;13.052;2023-03-04T10:00:57;3.43;;;1.43;;
23206;SDS011;11773;52.570;13.052;2023-03-04T10:04:24;3.20;;;1.33;;
23206;SDS011;11773;52.570;13.052;2023-03-04T10:06:31;1.67;;;0.87;;
23206;SDS011;11773;52.570;13.052;2023-03-04T10:09:20;2.67;;;1.30;;
23206;SDS011;11773;52.570;13.052;2023-03-04T10:11:59;1.97;;;1.23;;
23206;SDS011;11773;52.570;13.052;2023-03-04T10:14:32;2.43;;;1.13;;
23206;SDS011;11773;52.570;13.052;2023-03-04T10:17:12;2.47;;;1.33;;
23206;SDS011;11773;52.570;13.052;2023-03-04T10:19:54;2.20;;;1.00;;
23206;SDS011;11773;52.570;13.052;2023-03-04T10:22:49;1.70;;;1.00;;
23206;SDS011;11773;52.570;13.052;2023-03-04T10:25:25;3.07;;;1.33;;
23206;SDS011;11773;52.570;13.052;2023-03-04T10:28:03;4.53;;;1.50;;
23206;SDS011;11773;52.570;13.052;2023-03-04T10:30:35;2.93;;;1.27;;
23206;SDS011;11773;52.570;13.052;2023-03-04T10:33:12;3.10;;;1.17;;
23206;SDS011;11773;52.570;13.052;2023-03-04T10:35:54;1.73;;;1.03;;
23206;SDS011;11773;52.570;13.052;2023-03-04T10:38:31;4.57;;;1.80;;
23206;SDS011;11773;52.570;13.052;2023-03-04T10:41:24;2.87;;;1.37;;
23206;SDS011;11773;52.570;13.052;2023-03-04T10:44:29;2.23;;;1.33;;
23206;SDS011;11773;52.570;13.052;2023-03-04T10:46:38;3.57;;;1.50;;
23206;SDS011;11773;52.570;13.052;2023-03-04T10:49:10;3.03;;;1.40;;
23206;SDS011;11773;52.570;13.052;2023-03-04T10:51:43;4.20;;;1.53;;
23206;SDS011;11773;52.570;13.052;2023-03-04T11:02:43;2.53;;;1.50;;
23206;SDS011;11773;52.570;13.052;2023-03-04T11:05:17;3.17;;;1.90;;
23206;SDS011;11773;52.570;13.052;2023-03-04T11:10:24;4.67;;;1.63;;
23206;SDS011;11773;52.570;13.052;2023-03-04T11:16:00;4.73;;;1.80;;
23206;SDS011;11773;52.570;13.052;2023-03-04T11:18:37;3.70;;;1.87;;
23206;SDS011;11773;52.570;13.052;2023-03-04T11:21:23;4.60;;;1.60;;
23206;SDS011;11773;52.570;13.052;2023-03-04T11:23:57;3.43;;;1.80;;
23206;SDS011;11773;52.570;13.052;2023-03-04T11:26:48;2.30;;;1.40;;
23206;SDS011;11773;52.570;13.052;2023-03-04T11:29:25;5.17;;;1.53;;
23206;SDS011;11773;52.570;13.052;2023-03-04T11:32:08;4.10;;;1.90;;
23206;SDS011;11773;52.570;13.052;2023-03-04T11:40:56;4.70;;;1.70;;
23206;SDS011;11773;52.570;13.052;2023-03-04T11:43:43;6.43;;;1.70;;
23206;SDS011;11773;52.570;13.052;2023-03-04T11:46:29;4.17;;;1.97;;
23206;SDS011;11773;52.570;13.052;2023-03-04T11:52:30;4.27;;;1.80;;
23206;SDS011;11773;52.570;13.052;2023-03-04T11:55:37;3.57;;;1.50;;
23206;SDS011;11773;52.570;13.052;2023-03-04T12:01:07;3.47;;;1.30;;
23206;SDS011;11773;52.570;13.052;2023-03-04T12:04:06;4.77;;;1.40;;
23206;SDS011;11773;52.570;13.052;2023-03-04T12:06:50;2.10;;;1.20;;
23206;SDS011;11773;52.570;13.052;2023-03-04T12:09:38;1.93;;;1.00;;
23206;SDS011;11773;52.570;13.052;2023-03-04T12:15:16;2.30;;;1.30;;
23206;SDS011;11773;52.570;13.052;2023-03-04T12:18:30;2.23;;;1.00;;
23206;SDS011;11773;52.570;13.052;2023-03-04T12:20:58;2.73;;;1.53;;
23206;SDS011;11773;52.570;13.052;2023-03-04T12:26:37;4.43;;;1.40;;
23206;SDS011;11773;52.570;13.052;2023-03-04T12:32:21;3.60;;;1.67;;
23206;SDS011;11773;52.570;13.052;2023-03-04T12:35:29;3.20;;;1.50;;
23206;SDS011;11773;52.570;13.052;2023-03-04T12:38:07;2.53;;;1.00;;
23206;SDS011;11773;52.570;13.052;2023-03-04T12:44:17;3.20;;;1.67;;
23206;SDS011;11773;52.570;13.052;2023-03-04T12:47:04;3.10;;;1.13;;
23206;SDS011;11773;52.570;13.052;2023-03-04T12:49:51;2.77;;;1.47;;
23206;SDS011;11773;52.570;13.052;2023-03-04T12:52:46;3.37;;;1.40;;
23206;SDS011;11773;52.570;13.052;2023-03-04T12:55:44;4.27;;;1.47;;
23206;SDS011;11773;52.570;13.052;2023-03-04T12:58:18;2.77;;;1.27;;
23206;SDS011;11773;52.570;13.052;2023-03-04T13:03:56;1.77;;;1.10;;
23206;SDS011;11773;52.570;13.052;2023-03-04T13:09:16;2.60;;;1.30;;
23206;SDS011;11773;52.570;13.052;2023-03-04T13:12:56;2.37;;;1.20;;
23206;SDS011;11773;52.570;13.052;2023-03-04T13:17:49;1.90;;;0.97;;
23206;SDS011;11773;52.570;13.052;2023-03-04T13:21:03;2.77;;;1.13;;
23206;SDS011;11773;52.570;13.052;2023-03-04T13:23:40;3.43;;;1.30;;
23206;SDS011;11773;52.570;13.052;2023-03-04T13:29:19;2.50;;;1.27;;
23206;SDS011;11773;52.570;13.052;2023-03-04T13:31:59;2.27;;;1.23;;
23206;SDS011;11773;52.570;13.052;2023-03-04T13:34:41;3.00;;;1.27;;
23206;SDS011;11773;52.570;13.052;2023-03-04T13:37:27;2.87;;;1.33;;
23206;SDS011;11773;52.570;13.052;2023-03-04T13:45:57;2.90;;;1.20;;
23206;SDS011;11773;52.570;13.052;2023-03-04T13:48:30;1.83;;;1.00;;
23206;SDS011;11773;52.570;13.052;2023-03-04T13:51:03;3.47;;;1.70;;
23206;SDS011;11773;52.570;13.052;2023-03-04T13:53:37;3.30;;;2.10;;
23206;SDS011;11773;52.570;13.052;2023-03-04T13:56:11;2.77;;;1.70;;
23206;SDS011;11773;52.570;13.052;2023-03-04T13:59:10;3.33;;;1.60;;
23206;SDS011;11773;52.570;13.052;2023-03-04T14:04:34;3.63;;;2.00;;
23206;SDS011;11773;52.570;13.052;2023-03-04T14:07:18;2.67;;;1.37;;
23206;SDS011;11773;52.570;13.052;2023-03-04T14:09:59;4.03;;;1.43;;
23206;SDS011;11773;52.570;13.052;2023-03-04T14:12:34;3.10;;;1.40;;
23206;SDS011;11773;52.570;13.052;2023-03-04T14:17:57;4.03;;;1.37;;
23206;SDS011;11773;52.570;13.052;2023-03-04T14:20:35;2.23;;;1.30;;
23206;SDS011;11773;52.570;13.052;2023-03-04T14:23:28;3.43;;;1.13;;
23206;SDS011;11773;52.570;13.052;2023-03-04T14:26:03;3.07;;;1.13;;
23206;SDS011;11773;52.570;13.052;2023-03-04T14:28:58;2.60;;;1.60;;
23206;SDS011;11773;52.570;13.052;2023-03-04T14:31:18;5.03;;;2.90;;
23206;SDS011;11773;52.570;13.052;2023-03-04T14:33:53;2.67;;;1.60;;
23206;SDS011;11773;52.570;13.052;2023-03-04T14:36:29;2.63;;;1.60;;
23206;SDS011;11773;52.570;13.052;2023-03-04T14:39:03;3.50;;;1.90;;
23206;SDS011;11773;52.570;13.052;2023-03-04T14:41:35;3.33;;;1.33;;
23206;SDS011;11773;52.570;13.052;2023-03-04T14:44:28;2.20;;;1.47;;
23206;SDS011;11773;52.570;13.052;2023-03-04T14:47:12;1.97;;;1.40;;
23206;SDS011;11773;52.570;13.052;2023-03-04T14:50:12;7.03;;;3.93;;
23206;SDS011;11773;52.570;13.052;2023-03-04T14:52:50;4.90;;;2.30;;
23206;SDS011;11773;52.570;13.052;2023-03-04T14:58:05;7.80;;;1.70;;
23206;SDS011;11773;52.570;13.052;2023-03-04T15:00:37;2.63;;;1.53;;
23206;SDS011;11773;52.570;13.052;2023-03-04T15:03:18;2.73;;;1.17;;
23206;SDS011;11773;52.570;13.052;2023-03-04T15:06:05;2.10;;;1.23;;
23206;SDS011;11773;52.570;13.052;2023-03-04T15:08:45;3.23;;;1.70;;
23206;SDS011;11773;52.570;13.052;2023-03-04T15:11:22;3.03;;;1.27;;
23206;SDS011;11773;52.570;13.052;2023-03-04T15:13:58;2.27;;;1.20;;
23206;SDS011;11773;52.570;13.052;2023-03-04T15:16:51;4.60;;;1.37;;
23206;SDS011;11773;52.570;13.052;2023-03-04T15:19:03;2.80;;;1.50;;
23206;SDS011;11773;52.570;13.052;2023-03-04T15:21:37;3.83;;;1.97;;
23206;SDS011;11773;52.570;13.052;2023-03-04T15:24:08;3.80;;;1.60;;
23206;SDS011;11773;52.570;13.052;2023-03-04T15:26:40;2.00;;;1.20;;
23206;SDS011;11773;52.570;13.052;2023-03-04T15:29:12;2.13;;;1.20;;
23206;SDS011;11773;52.570;13.052;2023-03-04T15:31:46;0.80;;;0.57;;
23206;SDS011;11773;52.570;13.052;2023-03-04T15:34:17;1.70;;;0.83;;
23206;SDS011;11773;52.570;13.052;2023-03-04T15:36:48;1.77;;;1.00;;
23206;SDS011;11773;52.570;13.052;2023-03-04T15:39:18;1.47;;;0.80;;
23206;SDS011;11773;52.570;13.052;2023-03-04T15:41:49;1.67;;;0.70;;
23206;SDS011;11773;52.570;13.052;2023-03-04T15:44:18;1.23;;;0.73;;
23206;SDS011;11773;52.570;13.052;2023-03-04T15:46:48;1.00;;;0.60;;
23206;SDS011;11773;52.570;13.052;2023-03-04T15:49:17;0.80;;;0.60;;
23206;SDS011;11773;52.570;13.052;2023-03-04T15:51:47;2.77;;;0.87;;
23206;SDS011;11773;52.570;13.052;2023-03-04T15:54:18;3.83;;;1.40;;
23206;SDS011;11773;52.570;13.052;2023-03-04T15:56:51;1.57;;;0.93;;
23206;SDS011;11773;52.570;13.052;2023-03-04T15:59:22;1.57;;;0.77;;
23206;SDS011;11773;52.570;13.052;2023-03-04T16:01:53;1.70;;;0.90;;
23206;SDS011;11773;52.570;13.052;2023-03-04T16:04:22;0.70;;;0.60;;
23206;SDS011;11773;52.570;13.052;2023-03-04T16:06:52;0.87;;;0.70;;
23206;SDS011;11773;52.570;13.052;2023-03-04T16:09:23;1.23;;;0.80;;
23206;SDS011;11773;52.570;13.052;2023-03-04T16:11:52;1.37;;;0.70;;
23206;SDS011;11773;52.570;13.052;2023-03-04T16:14:24;1.50;;;0.70;;
23206;SDS011;11773;52.570;13.052;2023-03-04T16:16:53;0.70;;;0.60;;
23206;SDS011;11773;52.570;13.052;2023-03-04T16:19:23;1.37;;;0.73;;